sensor_id;sensor_type;location;lat;lon;timestamp;temperature;humidity
53962;DHT22;39868;53.398;6.564;2022-07-30T00:02:07;19.20;67.90
53962;DHT22;39868;53.398;6.564;2022-07-30T00:04:35;19.20;68.00
53962;DHT22;39868;53.398;6.564;2022-07-30T00:07:02;19.20;68.00
53962;DHT22;39868;53.398;6.564;2022-07-30T00:09:31;19.20;68.00
53962;DHT22;39868;53.398;6.564;2022-07-30T00:12:02;19.10;68.00
53962;DHT22;39868;53.398;6.564;2022-07-30T00:14:31;19.10;68.10
53962;DHT22;39868;53.398;6.564;2022-07-30T00:16:59;19.10;68.00
53962;DHT22;39868;53.398;6.564;2022-07-30T00:19:29;19.10;68.10
53962;DHT22;39868;53.398;6.564;2022-07-30T00:21:57;19.10;68.20
53962;DHT22;39868;53.398;6.564;2022-07-30T00:24:25;19.10;68.10
53962;DHT22;39868;53.398;6.564;2022-07-30T00:26:53;19.10;68.20
53962;DHT22;39868;53.398;6.564;2022-07-30T00:29:20;19.10;68.20
53962;DHT22;39868;53.398;6.564;2022-07-30T00:31:49;19.10;68.20
53962;DHT22;39868;53.398;6.564;2022-07-30T00:34:17;19.10;68.30
53962;DHT22;39868;53.398;6.564;2022-07-30T00:36:44;19.00;68.40
53962;DHT22;39868;53.398;6.564;2022-07-30T00:39:12;19.00;68.60
53962;DHT22;39868;53.398;6.564;2022-07-30T00:42:01;19.00;68.70
53962;DHT22;39868;53.398;6.564;2022-07-30T00:44:29;19.00;68.50
53962;DHT22;39868;53.398;6.564;2022-07-30T00:46:57;19.00;68.70
53962;DHT22;39868;53.398;6.564;2022-07-30T00:49:25;19.00;68.80
53962;DHT22;39868;53.398;6.564;2022-07-30T00:51:53;19.00;68.90
53962;DHT22;39868;53.398;6.564;2022-07-30T00:54:21;19.00;68.90
53962;DHT22;39868;53.398;6.564;2022-07-30T00:56:49;19.00;68.90
53962;DHT22;39868;53.398;6.564;2022-07-30T00:59:16;19.00;68.90
53962;DHT22;39868;53.398;6.564;2022-07-30T01:01:44;19.00;68.80
53962;DHT22;39868;53.398;6.564;2022-07-30T01:04:12;19.00;68.60
53962;DHT22;39868;53.398;6.564;2022-07-30T01:06:39;19.00;68.40
53962;DHT22;39868;53.398;6.564;2022-07-30T01:09:07;19.00;68.10
53962;DHT22;39868;53.398;6.564;2022-07-30T01:11:37;18.90;67.80
53962;DHT22;39868;53.398;6.564;2022-07-30T01:14:06;18.90;67.60
53962;DHT22;39868;53.398;6.564;2022-07-30T01:16:35;18.80;67.50
53962;DHT22;39868;53.398;6.564;2022-07-30T01:19:12;18.80;67.40
53962;DHT22;39868;53.398;6.564;2022-07-30T01:22:09;18.70;67.50
53962;DHT22;39868;53.398;6.564;2022-07-30T01:24:43;18.60;67.50
53962;DHT22;39868;53.398;6.564;2022-07-30T01:27:15;18.50;67.40
53962;DHT22;39868;53.398;6.564;2022-07-30T01:29:46;18.50;67.50
53962;DHT22;39868;53.398;6.564;2022-07-30T01:32:17;18.40;67.50
53962;DHT22;39868;53.398;6.564;2022-07-30T01:34:49;18.30;67.60
53962;DHT22;39868;53.398;6.564;2022-07-30T01:37:18;18.30;67.70
53962;DHT22;39868;53.398;6.564;2022-07-30T01:39:48;18.20;67.80
53962;DHT22;39868;53.398;6.564;2022-07-30T01:42:18;18.20;68.00
53962;DHT22;39868;53.398;6.564;2022-07-30T01:44:48;18.20;68.20
53962;DHT22;39868;53.398;6.564;2022-07-30T01:47:17;18.10;68.40
53962;DHT22;39868;53.398;6.564;2022-07-30T01:49:47;18.10;68.50
53962;DHT22;39868;53.398;6.564;2022-07-30T01:52:17;18.00;68.60
53962;DHT22;39868;53.398;6.564;2022-07-30T01:54:49;18.00;68.50
53962;DHT22;39868;53.398;6.564;2022-07-30T01:57:19;18.00;68.40
53962;DHT22;39868;53.398;6.564;2022-07-30T01:59:50;18.00;68.30
53962;DHT22;39868;53.398;6.564;2022-07-30T02:02:18;18.00;68.40
53962;DHT22;39868;53.398;6.564;2022-07-30T02:04:46;17.90;68.40
53962;DHT22;39868;53.398;6.564;2022-07-30T02:07:20;17.90;68.50
53962;DHT22;39868;53.398;6.564;2022-07-30T02:10:00;17.90;68.80
53962;DHT22;39868;53.398;6.564;2022-07-30T02:12:40;17.80;68.90
53962;DHT22;39868;53.398;6.564;2022-07-30T02:15:24;17.80;68.90
53962;DHT22;39868;53.398;6.564;2022-07-30T02:18:02;17.80;68.90
53962;DHT22;39868;53.398;6.564;2022-07-30T02:20:32;17.80;68.10
53962;DHT22;39868;53.398;6.564;2022-07-30T02:23:06;17.70;68.80
53962;DHT22;39868;53.398;6.564;2022-07-30T02:25:39;17.70;69.00
53962;DHT22;39868;53.398;6.564;2022-07-30T02:28:12;17.70;69.10
53962;DHT22;39868;53.398;6.564;2022-07-30T02:30:53;17.70;69.20
53962;DHT22;39868;53.398;6.564;2022-07-30T02:33:25;17.70;69.30
53962;DHT22;39868;53.398;6.564;2022-07-30T02:35:54;17.70;69.30
53962;DHT22;39868;53.398;6.564;2022-07-30T02:38:22;17.70;68.40
53962;DHT22;39868;53.398;6.564;2022-07-30T02:40:53;17.60;69.20
53962;DHT22;39868;53.398;6.564;2022-07-30T02:43:23;17.60;69.00
53962;DHT22;39868;53.398;6.564;2022-07-30T02:45:52;17.60;68.90
53962;DHT22;39868;53.398;6.564;2022-07-30T02:48:25;17.60;68.90
53962;DHT22;39868;53.398;6.564;2022-07-30T02:51:02;17.60;69.00
53962;DHT22;39868;53.398;6.564;2022-07-30T02:53:31;17.60;69.10
53962;DHT22;39868;53.398;6.564;2022-07-30T02:56:01;17.60;69.00
53962;DHT22;39868;53.398;6.564;2022-07-30T02:58:31;17.50;69.00
53962;DHT22;39868;53.398;6.564;2022-07-30T03:01:01;17.50;69.20
53962;DHT22;39868;53.398;6.564;2022-07-30T03:03:31;17.50;69.20
53962;DHT22;39868;53.398;6.564;2022-07-30T03:05:59;17.50;69.20
53962;DHT22;39868;53.398;6.564;2022-07-30T03:08:30;17.40;69.20
53962;DHT22;39868;53.398;6.564;2022-07-30T03:10:59;17.40;69.40
53962;DHT22;39868;53.398;6.564;2022-07-30T03:13:27;17.40;69.30
53962;DHT22;39868;53.398;6.564;2022-07-30T03:15:57;17.40;69.20
53962;DHT22;39868;53.398;6.564;2022-07-30T03:18:27;17.30;69.10
53962;DHT22;39868;53.398;6.564;2022-07-30T03:20:59;17.30;69.20
53962;DHT22;39868;53.398;6.564;2022-07-30T03:23:28;17.30;69.20
53962;DHT22;39868;53.398;6.564;2022-07-30T03:26:02;17.30;69.20
53962;DHT22;39868;53.398;6.564;2022-07-30T03:28:35;17.20;69.10
53962;DHT22;39868;53.398;6.564;2022-07-30T03:31:03;17.20;69.20
53962;DHT22;39868;53.398;6.564;2022-07-30T03:33:35;17.20;69.20
53962;DHT22;39868;53.398;6.564;2022-07-30T03:36:06;17.10;69.50
53962;DHT22;39868;53.398;6.564;2022-07-30T03:38:40;17.10;70.00
53962;DHT22;39868;53.398;6.564;2022-07-30T03:41:09;17.10;70.50
53962;DHT22;39868;53.398;6.564;2022-07-30T03:43:40;17.10;70.50
53962;DHT22;39868;53.398;6.564;2022-07-30T03:46:09;17.10;70.80
53962;DHT22;39868;53.398;6.564;2022-07-30T03:48:41;17.10;69.80
53962;DHT22;39868;53.398;6.564;2022-07-30T03:51:10;17.10;69.40
53962;DHT22;39868;53.398;6.564;2022-07-30T03:53:41;17.10;69.20
53962;DHT22;39868;53.398;6.564;2022-07-30T03:56:32;17.10;69.30
53962;DHT22;39868;53.398;6.564;2022-07-30T03:59:12;17.00;69.30
53962;DHT22;39868;53.398;6.564;2022-07-30T04:01:40;17.00;69.20
53962;DHT22;39868;53.398;6.564;2022-07-30T04:04:19;16.90;69.10
53962;DHT22;39868;53.398;6.564;2022-07-30T04:06:47;16.90;69.10
53962;DHT22;39868;53.398;6.564;2022-07-30T04:09:18;16.90;69.00
53962;DHT22;39868;53.398;6.564;2022-07-30T04:11:47;16.80;69.00
53962;DHT22;39868;53.398;6.564;2022-07-30T04:14:22;16.80;69.10
53962;DHT22;39868;53.398;6.564;2022-07-30T04:17:02;16.70;69.20
53962;DHT22;39868;53.398;6.564;2022-07-30T04:20:19;16.70;69.30
53962;DHT22;39868;53.398;6.564;2022-07-30T04:22:31;16.70;69.30
53962;DHT22;39868;53.398;6.564;2022-07-30T04:25:01;16.60;69.20
53962;DHT22;39868;53.398;6.564;2022-07-30T04:27:30;16.50;69.20
53962;DHT22;39868;53.398;6.564;2022-07-30T04:29:58;16.50;69.30
53962;DHT22;39868;53.398;6.564;2022-07-30T04:32:26;16.50;69.30
53962;DHT22;39868;53.398;6.564;2022-07-30T04:35:30;16.40;69.30
53962;DHT22;39868;53.398;6.564;2022-07-30T04:38:38;16.40;69.40
53962;DHT22;39868;53.398;6.564;2022-07-30T04:41:06;16.30;69.30
53962;DHT22;39868;53.398;6.564;2022-07-30T04:43:57;16.30;69.40
53962;DHT22;39868;53.398;6.564;2022-07-30T04:46:25;16.30;69.50
53962;DHT22;39868;53.398;6.564;2022-07-30T04:48:53;16.30;69.70
53962;DHT22;39868;53.398;6.564;2022-07-30T04:51:34;16.20;69.70
53962;DHT22;39868;53.398;6.564;2022-07-30T04:54:06;16.20;69.80
53962;DHT22;39868;53.398;6.564;2022-07-30T04:56:44;16.20;70.00
53962;DHT22;39868;53.398;6.564;2022-07-30T04:59:23;16.20;70.00
53962;DHT22;39868;53.398;6.564;2022-07-30T05:01:52;16.20;70.20
53962;DHT22;39868;53.398;6.564;2022-07-30T05:04:24;16.20;70.30
53962;DHT22;39868;53.398;6.564;2022-07-30T05:06:53;16.20;70.40
53962;DHT22;39868;53.398;6.564;2022-07-30T05:09:21;16.20;70.60
53962;DHT22;39868;53.398;6.564;2022-07-30T05:11:53;16.20;70.70
53962;DHT22;39868;53.398;6.564;2022-07-30T05:14:22;16.30;70.90
53962;DHT22;39868;53.398;6.564;2022-07-30T05:16:51;16.30;70.90
53962;DHT22;39868;53.398;6.564;2022-07-30T05:19:19;16.30;71.00
53962;DHT22;39868;53.398;6.564;2022-07-30T05:21:47;16.40;71.00
53962;DHT22;39868;53.398;6.564;2022-07-30T05:24:15;16.40;71.10
53962;DHT22;39868;53.398;6.564;2022-07-30T05:26:48;16.40;71.30
53962;DHT22;39868;53.398;6.564;2022-07-30T05:29:18;16.40;71.40
53962;DHT22;39868;53.398;6.564;2022-07-30T05:31:50;16.50;71.60
53962;DHT22;39868;53.398;6.564;2022-07-30T05:34:20;16.60;71.80
53962;DHT22;39868;53.398;6.564;2022-07-30T05:36:47;16.60;72.00
53962;DHT22;39868;53.398;6.564;2022-07-30T05:39:16;16.60;72.20
53962;DHT22;39868;53.398;6.564;2022-07-30T05:42:02;16.70;72.30
53962;DHT22;39868;53.398;6.564;2022-07-30T05:44:39;16.80;72.40
53962;DHT22;39868;53.398;6.564;2022-07-30T05:47:07;16.90;72.50
53962;DHT22;39868;53.398;6.564;2022-07-30T05:49:35;16.90;72.70
53962;DHT22;39868;53.398;6.564;2022-07-30T05:52:06;17.00;72.80
53962;DHT22;39868;53.398;6.564;2022-07-30T05:54:35;17.10;72.90
53962;DHT22;39868;53.398;6.564;2022-07-30T05:57:21;17.20;73.00
53962;DHT22;39868;53.398;6.564;2022-07-30T05:59:49;17.30;73.10
53962;DHT22;39868;53.398;6.564;2022-07-30T06:02:20;17.30;73.10
53962;DHT22;39868;53.398;6.564;2022-07-30T06:05:02;17.40;73.20
53962;DHT22;39868;53.398;6.564;2022-07-30T06:07:30;17.50;73.30
53962;DHT22;39868;53.398;6.564;2022-07-30T06:09:59;17.60;73.30
53962;DHT22;39868;53.398;6.564;2022-07-30T06:12:29;17.70;73.40
53962;DHT22;39868;53.398;6.564;2022-07-30T06:14:57;17.80;73.60
53962;DHT22;39868;53.398;6.564;2022-07-30T06:17:28;17.90;73.70
53962;DHT22;39868;53.398;6.564;2022-07-30T06:20:05;18.00;73.70
53962;DHT22;39868;53.398;6.564;2022-07-30T06:22:45;18.00;73.70
53962;DHT22;39868;53.398;6.564;2022-07-30T06:25:20;18.10;73.70
53962;DHT22;39868;53.398;6.564;2022-07-30T06:27:48;18.20;73.70
53962;DHT22;39868;53.398;6.564;2022-07-30T06:30:16;18.30;73.80
53962;DHT22;39868;53.398;6.564;2022-07-30T06:32:44;18.40;73.80
53962;DHT22;39868;53.398;6.564;2022-07-30T06:35:17;18.50;73.90
53962;DHT22;39868;53.398;6.564;2022-07-30T06:37:44;18.60;74.00
53962;DHT22;39868;53.398;6.564;2022-07-30T06:40:35;18.70;74.10
53962;DHT22;39868;53.398;6.564;2022-07-30T06:43:13;18.80;74.30
53962;DHT22;39868;53.398;6.564;2022-07-30T06:46:15;18.90;74.30
53962;DHT22;39868;53.398;6.564;2022-07-30T06:48:48;19.00;74.20
53962;DHT22;39868;53.398;6.564;2022-07-30T06:51:16;19.10;74.30
53962;DHT22;39868;53.398;6.564;2022-07-30T06:53:43;19.20;74.10
53962;DHT22;39868;53.398;6.564;2022-07-30T06:56:12;19.30;74.00
53962;DHT22;39868;53.398;6.564;2022-07-30T06:58:49;19.40;74.00
53962;DHT22;39868;53.398;6.564;2022-07-30T07:01:36;19.50;74.00
53962;DHT22;39868;53.398;6.564;2022-07-30T07:04:04;19.60;74.00
53962;DHT22;39868;53.398;6.564;2022-07-30T07:06:38;19.70;73.90
53962;DHT22;39868;53.398;6.564;2022-07-30T07:09:07;19.80;73.70
53962;DHT22;39868;53.398;6.564;2022-07-30T07:11:43;19.90;73.50
53962;DHT22;39868;53.398;6.564;2022-07-30T07:14:14;20.00;73.70
53962;DHT22;39868;53.398;6.564;2022-07-30T07:16:41;20.10;73.80
53962;DHT22;39868;53.398;6.564;2022-07-30T07:19:33;20.10;73.80
53962;DHT22;39868;53.398;6.564;2022-07-30T07:22:21;20.20;73.60
53962;DHT22;39868;53.398;6.564;2022-07-30T07:24:49;20.40;74.00
53962;DHT22;39868;53.398;6.564;2022-07-30T07:27:20;20.50;74.00
53962;DHT22;39868;53.398;6.564;2022-07-30T07:29:51;20.60;74.60
53962;DHT22;39868;53.398;6.564;2022-07-30T07:32:35;20.70;74.50
53962;DHT22;39868;53.398;6.564;2022-07-30T07:35:04;20.80;74.30
53962;DHT22;39868;53.398;6.564;2022-07-30T07:37:34;20.90;74.40
53962;DHT22;39868;53.398;6.564;2022-07-30T07:40:05;21.00;74.50
53962;DHT22;39868;53.398;6.564;2022-07-30T07:42:37;21.20;74.60
53962;DHT22;39868;53.398;6.564;2022-07-30T07:45:06;21.30;74.60
53962;DHT22;39868;53.398;6.564;2022-07-30T07:47:44;21.40;74.40
53962;DHT22;39868;53.398;6.564;2022-07-30T07:50:54;21.50;74.30
53962;DHT22;39868;53.398;6.564;2022-07-30T07:53:28;21.60;74.10
53962;DHT22;39868;53.398;6.564;2022-07-30T07:55:57;21.70;74.10
53962;DHT22;39868;53.398;6.564;2022-07-30T07:58:26;21.80;73.70
53962;DHT22;39868;53.398;6.564;2022-07-30T08:00:59;21.90;73.70
53962;DHT22;39868;53.398;6.564;2022-07-30T08:03:47;22.00;73.90
53962;DHT22;39868;53.398;6.564;2022-07-30T08:06:37;22.10;74.00
53962;DHT22;39868;53.398;6.564;2022-07-30T08:09:43;22.30;73.30
53962;DHT22;39868;53.398;6.564;2022-07-30T08:12:34;22.40;73.10
53962;DHT22;39868;53.398;6.564;2022-07-30T08:15:20;22.50;72.90
53962;DHT22;39868;53.398;6.564;2022-07-30T08:18:06;22.60;72.50
53962;DHT22;39868;53.398;6.564;2022-07-30T08:20:44;22.70;72.40
53962;DHT22;39868;53.398;6.564;2022-07-30T08:23:13;22.80;72.00
53962;DHT22;39868;53.398;6.564;2022-07-30T08:25:42;22.90;71.70
53962;DHT22;39868;53.398;6.564;2022-07-30T08:28:10;22.90;71.50
53962;DHT22;39868;53.398;6.564;2022-07-30T08:30:57;23.00;71.50
53962;DHT22;39868;53.398;6.564;2022-07-30T08:33:28;23.10;71.40
53962;DHT22;39868;53.398;6.564;2022-07-30T08:35:56;23.10;71.10
53962;DHT22;39868;53.398;6.564;2022-07-30T08:38:31;23.20;70.40
53962;DHT22;39868;53.398;6.564;2022-07-30T08:40:59;23.30;70.60
53962;DHT22;39868;53.398;6.564;2022-07-30T08:43:27;23.30;70.80
53962;DHT22;39868;53.398;6.564;2022-07-30T08:45:57;23.30;70.50
53962;DHT22;39868;53.398;6.564;2022-07-30T08:48:42;23.40;70.00
53962;DHT22;39868;53.398;6.564;2022-07-30T08:51:15;23.40;70.30
53962;DHT22;39868;53.398;6.564;2022-07-30T08:54:05;23.50;69.70
53962;DHT22;39868;53.398;6.564;2022-07-30T08:56:34;23.50;69.40
53962;DHT22;39868;53.398;6.564;2022-07-30T08:59:01;23.60;68.70
53962;DHT22;39868;53.398;6.564;2022-07-30T09:01:30;23.60;68.70
53962;DHT22;39868;53.398;6.564;2022-07-30T09:03:58;23.60;68.40
53962;DHT22;39868;53.398;6.564;2022-07-30T09:06:27;23.60;68.40
53962;DHT22;39868;53.398;6.564;2022-07-30T09:08:58;23.50;68.50
53962;DHT22;39868;53.398;6.564;2022-07-30T09:11:26;23.60;68.30
53962;DHT22;39868;53.398;6.564;2022-07-30T09:13:54;23.60;68.30
53962;DHT22;39868;53.398;6.564;2022-07-30T09:16:24;23.60;68.60
53962;DHT22;39868;53.398;6.564;2022-07-30T09:18:55;23.60;68.20
53962;DHT22;39868;53.398;6.564;2022-07-30T09:21:27;23.60;68.30
53962;DHT22;39868;53.398;6.564;2022-07-30T09:24:21;23.60;68.40
53962;DHT22;39868;53.398;6.564;2022-07-30T09:27:15;23.60;67.70
53962;DHT22;39868;53.398;6.564;2022-07-30T09:29:58;23.60;67.90
53962;DHT22;39868;53.398;6.564;2022-07-30T09:32:53;23.60;67.70
53962;DHT22;39868;53.398;6.564;2022-07-30T09:35:41;23.70;67.30
53962;DHT22;39868;53.398;6.564;2022-07-30T09:38:09;23.60;67.20
53962;DHT22;39868;53.398;6.564;2022-07-30T09:40:57;23.70;66.70
53962;DHT22;39868;53.398;6.564;2022-07-30T09:43:48;23.80;67.00
53962;DHT22;39868;53.398;6.564;2022-07-30T09:46:47;23.80;66.80
53962;DHT22;39868;53.398;6.564;2022-07-30T09:49:26;23.80;66.30
53962;DHT22;39868;53.398;6.564;2022-07-30T09:51:55;23.80;65.50
53962;DHT22;39868;53.398;6.564;2022-07-30T09:54:53;23.80;67.20
53962;DHT22;39868;53.398;6.564;2022-07-30T09:57:27;23.90;66.30
53962;DHT22;39868;53.398;6.564;2022-07-30T10:00:14;23.90;65.60
53962;DHT22;39868;53.398;6.564;2022-07-30T10:02:50;23.90;66.50
53962;DHT22;39868;53.398;6.564;2022-07-30T10:05:36;23.90;66.30
53962;DHT22;39868;53.398;6.564;2022-07-30T10:08:04;23.90;66.30
53962;DHT22;39868;53.398;6.564;2022-07-30T10:10:43;24.00;66.10
53962;DHT22;39868;53.398;6.564;2022-07-30T10:13:13;24.00;66.10
53962;DHT22;39868;53.398;6.564;2022-07-30T10:15:48;24.00;65.80
53962;DHT22;39868;53.398;6.564;2022-07-30T10:18:16;24.10;65.70
53962;DHT22;39868;53.398;6.564;2022-07-30T10:21:03;24.10;66.50
53962;DHT22;39868;53.398;6.564;2022-07-30T10:24:08;24.20;64.90
53962;DHT22;39868;53.398;6.564;2022-07-30T10:26:52;24.20;64.20
53962;DHT22;39868;53.398;6.564;2022-07-30T10:29:53;24.20;63.80
53962;DHT22;39868;53.398;6.564;2022-07-30T10:32:21;24.20;64.60
53962;DHT22;39868;53.398;6.564;2022-07-30T10:34:57;24.30;64.50
53962;DHT22;39868;53.398;6.564;2022-07-30T10:37:26;24.30;64.60
53962;DHT22;39868;53.398;6.564;2022-07-30T10:48:35;24.50;62.80
53962;DHT22;39868;53.398;6.564;2022-07-30T10:51:02;24.50;64.10
53962;DHT22;39868;53.398;6.564;2022-07-30T10:53:44;24.50;63.00
53962;DHT22;39868;53.398;6.564;2022-07-30T10:56:22;24.60;63.50
53962;DHT22;39868;53.398;6.564;2022-07-30T10:59:06;24.60;63.20
53962;DHT22;39868;53.398;6.564;2022-07-30T11:04:29;24.70;63.10
53962;DHT22;39868;53.398;6.564;2022-07-30T11:09:57;24.60;62.20
53962;DHT22;39868;53.398;6.564;2022-07-30T11:12:55;24.50;62.00
53962;DHT22;39868;53.398;6.564;2022-07-30T11:15:58;24.50;62.20
53962;DHT22;39868;53.398;6.564;2022-07-30T11:18:27;24.50;62.90
53962;DHT22;39868;53.398;6.564;2022-07-30T11:23:42;24.50;62.20
53962;DHT22;39868;53.398;6.564;2022-07-30T11:29:33;24.60;62.70
53962;DHT22;39868;53.398;6.564;2022-07-30T11:32:28;24.60;62.70
53962;DHT22;39868;53.398;6.564;2022-07-30T11:38:00;24.70;61.40
53962;DHT22;39868;53.398;6.564;2022-07-30T11:40:38;24.80;62.00
53962;DHT22;39868;53.398;6.564;2022-07-30T11:43:25;24.80;62.50
53962;DHT22;39868;53.398;6.564;2022-07-30T11:46:10;24.90;62.40
53962;DHT22;39868;53.398;6.564;2022-07-30T11:51:24;25.00;62.10
53962;DHT22;39868;53.398;6.564;2022-07-30T11:54:04;25.00;62.90
53962;DHT22;39868;53.398;6.564;2022-07-30T11:56:35;25.10;61.10
53962;DHT22;39868;53.398;6.564;2022-07-30T11:59:05;25.10;61.80
53962;DHT22;39868;53.398;6.564;2022-07-30T12:01:34;25.10;61.40
53962;DHT22;39868;53.398;6.564;2022-07-30T12:04:03;25.10;61.00
53962;DHT22;39868;53.398;6.564;2022-07-30T12:06:31;25.10;61.60
53962;DHT22;39868;53.398;6.564;2022-07-30T12:08:59;25.20;61.30
53962;DHT22;39868;53.398;6.564;2022-07-30T12:11:34;25.20;59.90
53962;DHT22;39868;53.398;6.564;2022-07-30T12:14:03;25.30;60.60
53962;DHT22;39868;53.398;6.564;2022-07-30T12:16:32;25.30;60.40
53962;DHT22;39868;53.398;6.564;2022-07-30T12:19:04;25.30;60.10
53962;DHT22;39868;53.398;6.564;2022-07-30T12:21:35;25.30;59.90
53962;DHT22;39868;53.398;6.564;2022-07-30T12:24:04;25.30;60.30
53962;DHT22;39868;53.398;6.564;2022-07-30T12:26:36;25.40;60.00
53962;DHT22;39868;53.398;6.564;2022-07-30T12:29:06;25.40;59.60
53962;DHT22;39868;53.398;6.564;2022-07-30T12:31:36;25.40;58.40
53962;DHT22;39868;53.398;6.564;2022-07-30T12:34:22;25.40;58.90
53962;DHT22;39868;53.398;6.564;2022-07-30T12:36:50;25.40;59.60
53962;DHT22;39868;53.398;6.564;2022-07-30T12:39:20;25.40;59.80
53962;DHT22;39868;53.398;6.564;2022-07-30T12:41:50;25.40;59.30
53962;DHT22;39868;53.398;6.564;2022-07-30T12:44:44;25.40;60.20
53962;DHT22;39868;53.398;6.564;2022-07-30T12:47:21;25.50;59.90
53962;DHT22;39868;53.398;6.564;2022-07-30T12:49:51;25.50;60.50
53962;DHT22;39868;53.398;6.564;2022-07-30T12:55:05;25.60;59.80
53962;DHT22;39868;53.398;6.564;2022-07-30T13:03:21;25.70;59.50
53962;DHT22;39868;53.398;6.564;2022-07-30T13:05:53;25.70;59.70
53962;DHT22;39868;53.398;6.564;2022-07-30T13:08:54;25.70;60.20
53962;DHT22;39868;53.398;6.564;2022-07-30T13:11:36;25.80;60.30
53962;DHT22;39868;53.398;6.564;2022-07-30T13:14:04;25.80;58.80
53962;DHT22;39868;53.398;6.564;2022-07-30T13:16:34;25.90;58.40
53962;DHT22;39868;53.398;6.564;2022-07-30T13:19:03;25.80;58.60
53962;DHT22;39868;53.398;6.564;2022-07-30T13:21:34;25.80;58.20
53962;DHT22;39868;53.398;6.564;2022-07-30T13:24:02;25.70;57.50
53962;DHT22;39868;53.398;6.564;2022-07-30T13:26:30;25.70;58.80
53962;DHT22;39868;53.398;6.564;2022-07-30T13:28:58;25.60;58.10
53962;DHT22;39868;53.398;6.564;2022-07-30T13:31:28;25.60;57.70
53962;DHT22;39868;53.398;6.564;2022-07-30T13:34:10;25.50;58.40
53962;DHT22;39868;53.398;6.564;2022-07-30T13:36:38;25.50;57.70
53962;DHT22;39868;53.398;6.564;2022-07-30T13:39:05;25.50;57.60
53962;DHT22;39868;53.398;6.564;2022-07-30T13:41:33;25.50;58.30
53962;DHT22;39868;53.398;6.564;2022-07-30T13:44:02;25.50;58.10
53962;DHT22;39868;53.398;6.564;2022-07-30T13:46:30;25.50;58.50
53962;DHT22;39868;53.398;6.564;2022-07-30T13:48:58;25.50;58.00
53962;DHT22;39868;53.398;6.564;2022-07-30T13:51:26;25.60;57.60
53962;DHT22;39868;53.398;6.564;2022-07-30T13:53:53;25.60;57.80
53962;DHT22;39868;53.398;6.564;2022-07-30T13:56:21;25.60;57.10
53962;DHT22;39868;53.398;6.564;2022-07-30T13:58:49;25.70;57.00
53962;DHT22;39868;53.398;6.564;2022-07-30T14:01:16;25.70;57.10
53962;DHT22;39868;53.398;6.564;2022-07-30T14:03:44;25.70;56.80
53962;DHT22;39868;53.398;6.564;2022-07-30T14:06:19;25.70;56.90
53962;DHT22;39868;53.398;6.564;2022-07-30T14:08:47;25.70;56.50
53962;DHT22;39868;53.398;6.564;2022-07-30T14:11:15;25.70;56.40
53962;DHT22;39868;53.398;6.564;2022-07-30T14:13:43;25.70;56.80
53962;DHT22;39868;53.398;6.564;2022-07-30T14:16:12;25.70;56.50
53962;DHT22;39868;53.398;6.564;2022-07-30T14:19:00;25.70;55.80
53962;DHT22;39868;53.398;6.564;2022-07-30T14:21:27;25.70;56.50
53962;DHT22;39868;53.398;6.564;2022-07-30T14:23:55;25.70;56.00
53962;DHT22;39868;53.398;6.564;2022-07-30T14:26:24;25.70;55.90
53962;DHT22;39868;53.398;6.564;2022-07-30T14:29:03;25.60;55.20
53962;DHT22;39868;53.398;6.564;2022-07-30T14:31:31;25.60;55.20
53962;DHT22;39868;53.398;6.564;2022-07-30T14:33:58;25.50;55.40
53962;DHT22;39868;53.398;6.564;2022-07-30T14:36:26;25.40;55.00
53962;DHT22;39868;53.398;6.564;2022-07-30T14:38:56;25.40;56.00
53962;DHT22;39868;53.398;6.564;2022-07-30T14:41:25;25.40;55.90
53962;DHT22;39868;53.398;6.564;2022-07-30T14:43:52;25.40;55.30
53962;DHT22;39868;53.398;6.564;2022-07-30T14:46:20;25.40;56.00
53962;DHT22;39868;53.398;6.564;2022-07-30T14:48:48;25.40;56.40
53962;DHT22;39868;53.398;6.564;2022-07-30T14:51:16;25.40;56.40
53962;DHT22;39868;53.398;6.564;2022-07-30T14:53:51;25.50;56.20
53962;DHT22;39868;53.398;6.564;2022-07-30T14:56:20;25.50;56.10
53962;DHT22;39868;53.398;6.564;2022-07-30T14:58:50;25.50;56.10
53962;DHT22;39868;53.398;6.564;2022-07-30T15:01:17;25.60;55.60
53962;DHT22;39868;53.398;6.564;2022-07-30T15:03:45;25.60;56.10
53962;DHT22;39868;53.398;6.564;2022-07-30T15:06:13;25.70;56.00
53962;DHT22;39868;53.398;6.564;2022-07-30T15:08:41;25.70;56.20
53962;DHT22;39868;53.398;6.564;2022-07-30T15:11:09;25.70;56.10
53962;DHT22;39868;53.398;6.564;2022-07-30T15:13:37;25.70;55.10
53962;DHT22;39868;53.398;6.564;2022-07-30T15:16:17;25.70;55.60
53962;DHT22;39868;53.398;6.564;2022-07-30T15:18:45;25.70;55.70
53962;DHT22;39868;53.398;6.564;2022-07-30T15:21:13;25.70;55.80
53962;DHT22;39868;53.398;6.564;2022-07-30T15:23:41;25.60;55.90
53962;DHT22;39868;53.398;6.564;2022-07-30T15:26:08;25.60;55.70
53962;DHT22;39868;53.398;6.564;2022-07-30T15:28:36;25.50;55.30
53962;DHT22;39868;53.398;6.564;2022-07-30T15:31:04;25.40;55.90
53962;DHT22;39868;53.398;6.564;2022-07-30T15:33:32;25.30;55.50
53962;DHT22;39868;53.398;6.564;2022-07-30T15:36:03;25.30;56.00
53962;DHT22;39868;53.398;6.564;2022-07-30T15:38:30;25.20;56.60
53962;DHT22;39868;53.398;6.564;2022-07-30T15:40:58;25.10;56.10
53962;DHT22;39868;53.398;6.564;2022-07-30T15:43:26;25.10;56.10
53962;DHT22;39868;53.398;6.564;2022-07-30T15:45:54;25.10;55.50
53962;DHT22;39868;53.398;6.564;2022-07-30T15:48:24;25.20;56.10
53962;DHT22;39868;53.398;6.564;2022-07-30T15:51:01;25.10;56.40
53962;DHT22;39868;53.398;6.564;2022-07-30T15:53:30;25.20;56.30
53962;DHT22;39868;53.398;6.564;2022-07-30T15:55:58;25.20;55.80
53962;DHT22;39868;53.398;6.564;2022-07-30T15:58:26;25.30;55.10
53962;DHT22;39868;53.398;6.564;2022-07-30T16:00:54;25.30;55.10
53962;DHT22;39868;53.398;6.564;2022-07-30T16:03:22;25.40;55.10
53962;DHT22;39868;53.398;6.564;2022-07-30T16:05:50;25.40;54.40
53962;DHT22;39868;53.398;6.564;2022-07-30T16:08:20;25.40;54.80
53962;DHT22;39868;53.398;6.564;2022-07-30T16:10:48;25.40;55.00
53962;DHT22;39868;53.398;6.564;2022-07-30T16:13:16;25.50;54.00
53962;DHT22;39868;53.398;6.564;2022-07-30T16:15:44;25.50;54.90
53962;DHT22;39868;53.398;6.564;2022-07-30T16:18:11;25.50;54.60
53962;DHT22;39868;53.398;6.564;2022-07-30T16:20:39;25.40;54.10
53962;DHT22;39868;53.398;6.564;2022-07-30T16:23:07;25.30;54.20
53962;DHT22;39868;53.398;6.564;2022-07-30T16:25:41;25.30;53.80
53962;DHT22;39868;53.398;6.564;2022-07-30T16:28:09;25.20;54.10
53962;DHT22;39868;53.398;6.564;2022-07-30T16:30:37;25.10;54.00
53962;DHT22;39868;53.398;6.564;2022-07-30T16:33:16;25.00;54.20
53962;DHT22;39868;53.398;6.564;2022-07-30T16:35:44;24.90;54.60
53962;DHT22;39868;53.398;6.564;2022-07-30T16:38:17;24.80;54.50
53962;DHT22;39868;53.398;6.564;2022-07-30T16:40:45;24.60;54.80
53962;DHT22;39868;53.398;6.564;2022-07-30T16:43:13;24.50;55.20